Time;durP1;ratioP1;P1;durP2;ratioP2;P2;SDS_P1;SDS_P2;PMS_P1;PMS_P2;Temp;Humidity;BMP_temperature;BMP_pressure;BME280_temperature;BME280_humidity;BME280_pressure;Samples;Min_cycle;Max_cycle;Signal;HPM_P1;HPM_P2
2022/04/09 00:00:57;;;;;;;;;;;;;;;0.55;95.97;94887.28;4886177;29;19990;-77
2022/04/09 00:03:23;;;;;;;;;;;;;;;0.54;94.63;94921.78;4871464;29;19970;-78
2022/04/09 00:05:49;;;;;;;;;;;;;;;0.53;95.49;94940.03;4890376;29;20386;-77
2022/04/09 00:08:15;;;;;;;;;;;;;;;0.58;96.32;94948.00;4890782;29;20297;-77
2022/04/09 00:10:41;;;;;;;;;;;;;;;0.61;95.33;94952.78;4885603;29;19956;-78
2022/04/09 00:13:07;;;;;;;;;;;;;;;0.60;94.66;94940.84;4888531;29;20332;-78
2022/04/09 00:15:33;;;;;;;;;;;;;;;0.59;95.01;94940.06;4887780;29;19979;-79
2022/04/09 00:17:59;;;;;;;;;;;;;;;0.62;95.65;94962.09;4893081;29;20012;-77
2022/04/09 00:20:24;;;;;;;;;;;;;;;0.64;95.75;94962.69;4891627;29;19962;-77
2022/04/09 00:22:52;;;;;;;;;;;;;;;0.63;96.36;94961.13;4885732;29;20004;-78
2022/04/09 00:25:23;;;;;;;;;;;;;;;0.63;96.70;94984.34;4884412;29;19962;-78
2022/04/09 00:27:50;;;;;;;;;;;;;;;0.66;96.10;94988.31;4895321;29;19958;-77
2022/04/09 00:30:16;;;;;;;;;;;;;;;0.67;96.14;95008.75;4889961;29;19952;-76
2022/04/09 00:32:42;;;;;;;;;;;;;;;0.67;96.22;95026.78;4889136;29;20003;-77
2022/04/09 00:35:08;;;;;;;;;;;;;;;0.69;96.14;95036.94;4893930;29;19978;-79
2022/04/09 00:37:43;;;;;;;;;;;;;;;0.69;96.10;95048.03;4897536;29;19972;-76
2022/04/09 00:40:09;;;;;;;;;;;;;;;0.69;96.25;95058.38;4894992;29;19956;-77
2022/04/09 00:42:35;;;;;;;;;;;;;;;0.69;95.71;95060.16;4873600;29;19954;-77
2022/04/09 00:45:13;;;;;;;;;;;;;;;0.68;95.25;95080.00;4890383;29;19964;-76
2022/04/09 00:47:40;;;;;;;;;;;;;;;0.67;95.64;95085.34;4898623;29;19956;-76
2022/04/09 00:50:06;;;;;;;;;;;;;;;0.64;95.42;95106.38;4892573;29;19959;-76
2022/04/09 00:52:33;;;;;;;;;;;;;;;0.64;95.18;95119.28;4893032;29;20315;-76
2022/04/09 00:55:00;;;;;;;;;;;;;;;0.61;95.41;95123.03;4880059;29;20318;-75
2022/04/09 00:57:27;;;;;;;;;;;;;;;0.56;95.47;95126.16;4892682;29;19956;-76
2022/04/09 00:59:54;;;;;;;;;;;;;;;0.54;95.79;95128.13;4890914;29;19957;-75
2022/04/09 01:02:20;;;;;;;;;;;;;;;0.49;95.08;95135.63;4892842;29;19957;-76
2022/04/09 01:04:47;;;;;;;;;;;;;;;0.46;95.52;95141.16;4871389;29;19965;-77
2022/04/09 01:07:14;;;;;;;;;;;;;;;0.43;94.50;95148.47;4893701;29;19986;-75
2022/04/09 01:09:40;;;;;;;;;;;;;;;0.39;95.04;95169.47;4894409;29;20328;-76
2022/04/09 01:12:06;;;;;;;;;;;;;;;0.39;95.32;95173.84;4895540;29;19965;-75
2022/04/09 01:14:34;;;;;;;;;;;;;;;0.38;95.91;95190.31;4896093;29;19972;-75
2022/04/09 01:17:00;;;;;;;;;;;;;;;0.42;96.19;95204.44;4889216;29;20413;-74
2022/04/09 01:19:26;;;;;;;;;;;;;;;0.46;94.75;95210.78;4890308;29;19960;-75
2022/04/09 01:21:54;;;;;;;;;;;;;;;0.47;94.78;95220.13;4893033;29;19965;-75
2022/04/09 01:24:20;;;;;;;;;;;;;;;0.50;96.11;95219.75;4892516;29;19956;-75
2022/04/09 01:26:46;;;;;;;;;;;;;;;0.53;94.91;95226.34;4891986;29;20454;-75
2022/04/09 01:29:12;;;;;;;;;;;;;;;0.54;95.82;95239.03;4892265;29;19967;-76
2022/04/09 01:31:37;;;;;;;;;;;;;;;0.57;95.02;95248.22;4890240;29;19963;-77
2022/04/09 01:34:03;;;;;;;;;;;;;;;0.57;94.69;95248.22;4894128;29;19982;-75
2022/04/09 01:36:29;;;;;;;;;;;;;;;0.59;95.58;95254.78;4892623;29;19970;-78
2022/04/09 01:38:55;;;;;;;;;;;;;;;0.58;95.10;95260.91;4873621;29;19955;-78
2022/04/09 01:41:21;;;;;;;;;;;;;;;0.59;95.84;95272.81;4888082;29;19963;-76
2022/04/09 01:43:47;;;;;;;;;;;;;;;0.63;95.94;95275.03;4891587;29;20057;-77
2022/04/09 01:46:12;;;;;;;;;;;;;;;0.68;95.59;95286.41;4893827;29;19952;-75
2022/04/09 01:48:41;;;;;;;;;;;;;;;0.73;95.81;95293.59;4892398;29;19959;-77
2022/04/09 01:51:06;;;;;;;;;;;;;;;1.14;100.00;95303.28;4873102;29;19963;-76
2022/04/09 01:53:34;;;;;;;;;;;;;;;1.40;100.00;95305.22;4886043;29;19974;-76
2022/04/09 01:56:00;;;;;;;;;;;;;;;1.48;98.75;95312.06;4896172;29;19968;-77
2022/04/09 01:58:26;;;;;;;;;;;;;;;1.50;95.44;95320.41;4879805;29;19964;-76
2022/04/09 02:00:58;;;;;;;;;;;;;;;1.50;94.77;95328.97;4890489;29;20337;-75
2022/04/09 02:03:25;;;;;;;;;;;;;;;1.52;94.44;95333.94;4888021;29;19959;-78
2022/04/09 02:05:51;;;;;;;;;;;;;;;1.49;93.28;95340.28;4891162;29;20461;-76
2022/04/09 02:08:17;;;;;;;;;;;;;;;1.44;92.79;95344.41;4870374;29;20330;-76
2022/04/09 02:10:43;;;;;;;;;;;;;;;1.40;93.46;95349.16;4894421;29;19990;-76
2022/04/09 02:13:18;;;;;;;;;;;;;;;1.38;93.24;95356.28;4890872;29;20390;-77
2022/04/09 02:15:44;;;;;;;;;;;;;;;1.39;93.43;95375.97;4889249;29;20456;-76
2022/04/09 02:18:09;;;;;;;;;;;;;;;1.41;93.52;95371.44;4886843;29;19958;-75
2022/04/09 02:20:35;;;;;;;;;;;;;;;1.44;93.50;95373.63;4876545;29;20007;-76
2022/04/09 02:23:01;;;;;;;;;;;;;;;1.50;93.54;95385.00;4892523;29;20412;-77
2022/04/09 02:25:27;;;;;;;;;;;;;;;1.52;93.35;95386.41;4867909;29;20028;-75
2022/04/09 02:27:53;;;;;;;;;;;;;;;1.51;92.78;95390.00;4896353;29;19965;-77
2022/04/09 02:30:19;;;;;;;;;;;;;;;1.46;93.02;95396.69;4894980;29;19996;-77
2022/04/09 02:32:45;;;;;;;;;;;;;;;1.46;93.03;95405.22;4888310;29;19990;-79
2022/04/09 02:35:12;;;;;;;;;;;;;;;1.46;93.38;95420.72;4891914;29;19973;-78
2022/04/09 02:37:38;;;;;;;;;;;;;;;1.49;93.70;95430.72;4893609;29;19975;-77
2022/04/09 02:40:04;;;;;;;;;;;;;;;1.53;93.59;95449.19;4890974;29;19965;-77
2022/04/09 02:42:30;;;;;;;;;;;;;;;1.53;92.90;95457.75;4869897;29;19972;-78
2022/04/09 02:44:56;;;;;;;;;;;;;;;1.55;93.29;95462.75;4893155;29;19957;-77
2022/04/09 02:47:22;;;;;;;;;;;;;;;1.59;93.49;95464.75;4893391;29;19953;-78
2022/04/09 02:49:48;;;;;;;;;;;;;;;1.62;93.26;95479.13;4873830;29;19991;-77
2022/04/09 02:52:14;;;;;;;;;;;;;;;1.66;93.46;95484.69;4890246;29;19974;-77
2022/04/09 02:54:40;;;;;;;;;;;;;;;1.67;93.47;95502.59;4889980;29;20014;-77
2022/04/09 02:57:06;;;;;;;;;;;;;;;1.70;93.31;95506.59;4887037;29;19960;-77
2022/04/09 02:59:32;;;;;;;;;;;;;;;1.72;93.38;95515.78;4888669;29;20437;-77
2022/04/09 03:01:58;;;;;;;;;;;;;;;1.69;92.20;95513.56;4894633;29;20016;-77
2022/04/09 03:04:24;;;;;;;;;;;;;;;1.63;92.50;95520.25;4891485;29;19963;-76
2022/04/09 03:06:50;;;;;;;;;;;;;;;1.59;92.52;95525.97;4883436;29;19984;-76
2022/04/09 03:09:15;;;;;;;;;;;;;;;1.60;92.53;95537.94;4877564;29;19993;-76
2022/04/09 03:11:41;;;;;;;;;;;;;;;1.62;92.89;95548.88;4873229;29;19963;-77
2022/04/09 03:14:07;;;;;;;;;;;;;;;1.64;93.04;95554.69;4889197;29;19964;-76
2022/04/09 03:16:33;;;;;;;;;;;;;;;1.68;93.18;95553.31;4870314;29;19958;-78
2022/04/09 03:18:59;;;;;;;;;;;;;;;1.68;93.44;95563.66;4888362;29;19961;-77
2022/04/09 03:21:25;;;;;;;;;;;;;;;1.72;93.40;95575.22;4893110;29;19961;-76
2022/04/09 03:23:51;;;;;;;;;;;;;;;1.74;93.14;95567.28;4890975;29;19965;-75
2022/04/09 03:26:18;;;;;;;;;;;;;;;1.78;93.01;95568.50;4868362;29;20006;-75
2022/04/09 03:28:44;;;;;;;;;;;;;;;1.79;93.18;95575.28;4891410;29;19960;-75
2022/04/09 03:31:09;;;;;;;;;;;;;;;1.81;92.88;95575.91;4875590;29;19988;-75
2022/04/09 03:33:35;;;;;;;;;;;;;;;1.82;92.83;95573.13;4891347;29;20317;-75
2022/04/09 03:36:02;;;;;;;;;;;;;;;1.83;92.92;95581.69;4870771;29;19989;-75
2022/04/09 03:38:28;;;;;;;;;;;;;;;1.85;92.98;95595.25;4889505;29;20331;-76
2022/04/09 03:40:53;;;;;;;;;;;;;;;1.85;92.07;95591.81;4890186;29;19964;-75
2022/04/09 03:43:19;;;;;;;;;;;;;;;1.79;92.36;95589.00;4888517;29;19966;-75
2022/04/09 03:45:45;;;;;;;;;;;;;;;1.76;92.66;95607.47;4895746;29;19954;-75
2022/04/09 03:48:11;;;;;;;;;;;;;;;1.71;92.90;95611.59;4848701;29;19958;-75
2022/04/09 03:50:37;;;;;;;;;;;;;;;1.65;92.62;95620.06;4888580;29;19965;-77
2022/04/09 03:53:03;;;;;;;;;;;;;;;1.61;92.94;95622.22;4875512;29;19980;-76
2022/04/09 03:55:29;;;;;;;;;;;;;;;1.63;93.71;95633.97;4871441;29;20487;-74
2022/04/09 03:57:56;;;;;;;;;;;;;;;1.69;93.80;95645.38;4889853;29;19953;-75
2022/04/09 04:00:22;;;;;;;;;;;;;;;1.68;92.84;95645.53;4889294;29;20451;-77
2022/04/09 04:02:48;;;;;;;;;;;;;;;1.70;92.82;95649.56;4888548;29;19958;-77
2022/04/09 04:05:13;;;;;;;;;;;;;;;1.68;92.62;95655.88;4886945;29;19969;-77
2022/04/09 04:07:43;;;;;;;;;;;;;;;1.70;93.52;95661.66;4866161;29;20326;-77
2022/04/09 04:10:10;;;;;;;;;;;;;;;1.69;92.60;95671.22;4893065;29;19955;-77
2022/04/09 04:12:36;;;;;;;;;;;;;;;1.63;92.54;95670.13;4893317;29;19961;-76
2022/04/09 04:15:02;;;;;;;;;;;;;;;1.61;92.80;95677.28;4888506;29;20348;-75
2022/04/09 04:17:39;;;;;;;;;;;;;;;1.57;92.47;95683.78;4887922;29;19958;-77
2022/04/09 04:20:06;;;;;;;;;;;;;;;1.69;100.00;95694.47;4886544;29;19959;-76
2022/04/09 04:22:31;;;;;;;;;;;;;;;1.88;96.86;95700.84;4893121;29;20434;-76
2022/04/09 04:24:57;;;;;;;;;;;;;;;1.86;92.83;95700.22;4890283;29;19959;-76
2022/04/09 04:27:23;;;;;;;;;;;;;;;1.83;92.14;95716.13;4889630;29;19998;-75
2022/04/09 04:29:49;;;;;;;;;;;;;;;1.76;92.92;95720.41;4887623;29;20008;-75
2022/04/09 04:32:15;;;;;;;;;;;;;;;1.78;92.74;95716.63;4895127;29;20404;-76
2022/04/09 04:34:41;;;;;;;;;;;;;;;1.79;93.50;95725.22;4893448;29;19967;-75
2022/04/09 04:37:06;;;;;;;;;;;;;;;1.78;92.88;95729.56;4886454;29;19962;-77
2022/04/09 04:39:32;;;;;;;;;;;;;;;1.76;92.69;95731.53;4889443;29;19994;-76
2022/04/09 04:41:58;;;;;;;;;;;;;;;1.74;91.68;95745.63;4871582;29;20421;-76
2022/04/09 04:44:24;;;;;;;;;;;;;;;1.68;91.29;95742.00;4894808;29;20020;-79
2022/04/09 04:46:50;;;;;;;;;;;;;;;1.65;92.46;95739.75;4885473;29;20408;-77
2022/04/09 04:49:16;;;;;;;;;;;;;;;1.63;92.02;95741.72;4872364;29;20387;-77
2022/04/09 04:51:42;;;;;;;;;;;;;;;1.61;92.99;95754.81;4872646;29;19961;-75
2022/04/09 04:54:08;;;;;;;;;;;;;;;1.59;91.53;95755.97;4891052;29;20411;-76
2022/04/09 04:56:34;;;;;;;;;;;;;;;1.55;92.13;95765.84;4891847;29;20344;-74
2022/04/09 04:59:00;;;;;;;;;;;;;;;1.56;91.82;95770.06;4887721;29;19963;-74
2022/04/09 05:01:26;;;;;;;;;;;;;;;1.50;91.27;95772.53;4888007;29;19959;-74
2022/04/09 05:03:53;;;;;;;;;;;;;;;1.46;91.68;95784.22;4883236;29;19965;-74
2022/04/09 05:06:19;;;;;;;;;;;;;;;1.47;92.19;95786.63;4885556;29;19982;-75
2022/04/09 05:08:50;;;;;;;;;;;;;;;1.47;93.02;95784.03;4871588;29;19966;-75
2022/04/09 05:11:16;;;;;;;;;;;;;;;1.48;92.79;95790.00;4889181;29;20488;-75
2022/04/09 05:13:42;;;;;;;;;;;;;;;1.48;91.29;95790.00;4872708;29;19965;-77
2022/04/09 05:16:08;;;;;;;;;;;;;;;1.48;91.23;95795.97;4871576;29;20104;-77
2022/04/09 05:18:34;;;;;;;;;;;;;;;1.46;90.93;95802.31;4891032;29;20027;-77
2022/04/09 05:21:00;;;;;;;;;;;;;;;1.45;91.33;95804.09;4888370;29;20419;-76
2022/04/09 05:23:26;;;;;;;;;;;;;;;1.51;92.48;95802.56;4895874;29;20040;-76
2022/04/09 05:25:52;;;;;;;;;;;;;;;1.59;90.88;95807.66;4891888;29;20021;-75
2022/04/09 05:28:18;;;;;;;;;;;;;;;1.67;90.01;95809.34;4889892;29;19954;-75
2022/04/09 05:30:44;;;;;;;;;;;;;;;1.98;88.11;95819.53;4891533;29;20043;-75
2022/04/09 05:33:10;;;;;;;;;;;;;;;2.31;87.83;95819.94;4893695;29;20318;-75
2022/04/09 05:35:36;;;;;;;;;;;;;;;2.64;87.14;95829.84;4895275;29;19977;-75
2022/04/09 05:38:03;;;;;;;;;;;;;;;2.77;84.89;95842.94;4891032;29;20038;-74
2022/04/09 05:40:29;;;;;;;;;;;;;;;2.75;85.24;95842.31;4890092;29;20332;-74
2022/04/09 05:42:55;;;;;;;;;;;;;;;2.71;84.09;95848.03;4890817;29;19985;-75
2022/04/09 05:45:21;;;;;;;;;;;;;;;2.59;83.74;95852.88;4892070;29;20316;-75
2022/04/09 05:47:47;;;;;;;;;;;;;;;2.51;84.99;95861.56;4897453;29;19946;-75
2022/04/09 05:50:14;;;;;;;;;;;;;;;2.45;84.22;95875.22;4895499;29;19964;-75
2022/04/09 05:52:40;;;;;;;;;;;;;;;2.55;86.57;95873.16;4890544;29;19958;-75
2022/04/09 05:55:07;;;;;;;;;;;;;;;2.74;86.90;95882.13;4890080;29;19983;-75
2022/04/09 05:57:33;;;;;;;;;;;;;;;3.04;86.53;95884.63;4895188;29;19964;-76
2022/04/09 05:59:59;;;;;;;;;;;;;;;3.29;84.85;95886.84;4891923;29;19955;-75
2022/04/09 06:02:25;;;;;;;;;;;;;;;3.50;84.02;95893.81;4881443;29;19958;-74
2022/04/09 06:04:51;;;;;;;;;;;;;;;3.49;83.64;95905.19;4891869;29;19957;-75
2022/04/09 06:07:31;;;;;;;;;;;;;;;3.53;83.88;95908.97;4891418;29;19969;-75
2022/04/09 06:09:57;;;;;;;;;;;;;;;3.49;82.74;95916.34;4887062;29;20014;-77
2022/04/09 06:12:23;;;;;;;;;;;;;;;3.34;81.99;95915.59;4882447;29;19957;-77
2022/04/09 06:14:49;;;;;;;;;;;;;;;3.11;82.36;95926.13;4867440;29;20322;-76
2022/04/09 06:17:15;;;;;;;;;;;;;;;2.91;80.98;95920.75;4890873;29;19973;-76
2022/04/09 06:19:41;;;;;;;;;;;;;;;2.71;80.98;95923.09;4895270;29;19972;-75
2022/04/09 06:22:06;;;;;;;;;;;;;;;2.55;83.00;95930.09;4887482;29;19965;-76
2022/04/09 06:24:32;;;;;;;;;;;;;;;2.59;82.38;95927.94;4873523;29;20001;-74
2022/04/09 06:26:58;;;;;;;;;;;;;;;2.83;84.55;95940.59;4873382;29;19962;-75
2022/04/09 06:29:24;;;;;;;;;;;;;;;3.55;85.79;95932.94;4894734;29;20087;-75
2022/04/09 06:31:50;;;;;;;;;;;;;;;4.52;80.73;95932.22;4888995;29;20039;-76
2022/04/09 06:34:39;;;;;;;;;;;;;;;5.56;78.59;95932.91;4872320;29;19971;-75
2022/04/09 06:37:05;;;;;;;;;;;;;;;5.90;76.00;95922.34;4889019;29;19987;-77
2022/04/09 06:39:31;;;;;;;;;;;;;;;5.83;76.01;95934.53;4880990;29;20000;-76
2022/04/09 06:41:58;;;;;;;;;;;;;;;5.98;74.42;95921.34;4873363;29;19961;-77
2022/04/09 06:44:25;;;;;;;;;;;;;;;5.96;74.28;95941.56;4890005;29;19969;-76
2022/04/09 06:46:51;;;;;;;;;;;;;;;5.98;73.77;95936.16;4890991;29;20327;-77
2022/04/09 06:49:17;;;;;;;;;;;;;;;5.79;74.62;95958.56;4884193;29;19961;-76
2022/04/09 06:51:44;;;;;;;;;;;;;;;5.80;74.33;95960.97;4894794;29;20040;-75
2022/04/09 06:54:10;;;;;;;;;;;;;;;5.86;75.85;95967.19;4877447;29;19971;-76
2022/04/09 06:56:39;;;;;;;;;;;;;;;5.89;72.78;95948.56;4881634;29;19977;-75
2022/04/09 06:59:05;;;;;;;;;;;;;;;5.67;73.19;95963.56;4890096;29;19965;-75
2022/04/09 07:01:30;;;;;;;;;;;;;;;5.67;74.75;95971.38;4872427;29;19954;-75
2022/04/09 07:03:57;;;;;;;;;;;;;;;5.54;72.84;95955.72;4888381;29;19969;-76
2022/04/09 07:06:23;;;;;;;;;;;;;;;5.33;73.06;95962.69;4887559;29;20451;-76
2022/04/09 07:08:49;;;;;;;;;;;;;;;5.36;75.89;95996.09;4889744;29;20494;-76
2022/04/09 07:11:15;;;;;;;;;;;;;;;5.28;75.13;95991.06;4899301;29;19981;-75
2022/04/09 07:13:41;;;;;;;;;;;;;;;5.12;75.22;96007.00;4888285;29;20420;-75
2022/04/09 07:16:07;;;;;;;;;;;;;;;4.95;75.57;96009.13;4889385;29;20028;-76
2022/04/09 07:18:33;;;;;;;;;;;;;;;4.79;77.49;96025.88;4891532;29;20008;-77
2022/04/09 07:20:59;;;;;;;;;;;;;;;4.72;78.41;96036.19;4890612;29;19952;-77
2022/04/09 07:23:25;;;;;;;;;;;;;;;4.62;76.31;96020.97;4887413;29;20414;-77
2022/04/09 07:25:51;;;;;;;;;;;;;;;4.52;76.30;96024.91;4876183;29;20006;-78
2022/04/09 07:28:17;;;;;;;;;;;;;;;4.43;78.00;96037.19;4889842;29;20014;-77
2022/04/09 07:30:43;;;;;;;;;;;;;;;4.40;75.99;96020.22;4892396;29;19966;-78
2022/04/09 07:33:09;;;;;;;;;;;;;;;4.60;76.87;96029.91;4889625;29;19967;-78
2022/04/09 07:35:35;;;;;;;;;;;;;;;4.90;76.13;96022.72;4897037;29;19969;-77
2022/04/09 07:38:02;;;;;;;;;;;;;;;5.39;76.49;96021.69;4880936;29;19979;-77
2022/04/09 07:40:28;;;;;;;;;;;;;;;5.72;73.68;96010.59;4892268;29;20320;-76
2022/04/09 07:42:54;;;;;;;;;;;;;;;5.70;73.83;96015.19;4885615;29;19949;-75
2022/04/09 07:45:21;;;;;;;;;;;;;;;5.50;73.26;96017.72;4869405;29;19975;-75
2022/04/09 07:47:51;;;;;;;;;;;;;;;5.25;72.68;96020.06;4898573;29;20408;-75
2022/04/09 07:50:17;;;;;;;;;;;;;;;5.11;73.58;96039.22;4887927;29;19965;-76
2022/04/09 07:52:43;;;;;;;;;;;;;;;4.93;75.71;96050.09;4895705;29;20012;-76
2022/04/09 07:55:11;;;;;;;;;;;;;;;4.90;74.48;96051.28;4880725;29;20404;-76
2022/04/09 07:57:40;;;;;;;;;;;;;;;4.80;76.34;96061.22;4888726;29;19954;-75
2022/04/09 08:00:06;;;;;;;;;;;;;;;4.68;75.55;96068.72;4871005;29;19972;-75
2022/04/09 08:02:33;;;;;;;;;;;;;;;4.61;75.88;96070.50;4884453;29;19973;-75
2022/04/09 08:04:59;;;;;;;;;;;;;;;4.61;77.76;96080.88;4890295;29;20445;-75
2022/04/09 08:07:24;;;;;;;;;;;;;;;4.57;77.23;96077.84;4877303;29;19961;-75
2022/04/09 08:09:50;;;;;;;;;;;;;;;4.55;77.57;96097.22;4888998;29;20467;-75
2022/04/09 08:12:16;;;;;;;;;;;;;;;4.53;75.81;96081.03;4888454;29;20082;-75
2022/04/09 08:14:42;;;;;;;;;;;;;;;4.45;75.16;96087.16;4894408;29;19964;-75
2022/04/09 08:17:08;;;;;;;;;;;;;;;4.41;77.47;96106.69;4880072;29;20452;-76
2022/04/09 08:19:35;;;;;;;;;;;;;;;4.48;77.67;96105.75;4888768;29;19963;-75
2022/04/09 08:22:04;;;;;;;;;;;;;;;4.69;76.21;96091.13;4892015;29;20318;-75
2022/04/09 08:24:30;;;;;;;;;;;;;;;5.17;74.70;96090.44;4883576;29;19963;-75
2022/04/09 08:26:56;;;;;;;;;;;;;;;5.37;75.13;96091.31;4892236;29;20037;-76
2022/04/09 08:29:24;;;;;;;;;;;;;;;5.37;74.31;96085.31;4894176;29;19968;-76
2022/04/09 08:31:50;;;;;;;;;;;;;;;5.49;71.85;96070.75;4875559;29;19958;-75
2022/04/09 08:34:17;;;;;;;;;;;;;;;6.00;73.25;96082.53;4888862;29;19965;-74
2022/04/09 08:36:44;;;;;;;;;;;;;;;6.62;72.38;96076.16;4893104;29;19976;-74
2022/04/09 08:39:10;;;;;;;;;;;;;;;6.94;66.79;96021.56;4890185;29;20415;-74
2022/04/09 08:41:36;;;;;;;;;;;;;;;7.10;67.05;96026.34;4893966;29;19964;-77
2022/04/09 08:44:03;;;;;;;;;;;;;;;6.83;66.75;96030.81;4887274;29;19961;-74
2022/04/09 08:46:29;;;;;;;;;;;;;;;6.74;69.65;96062.50;4885775;29;20319;-74
2022/04/09 08:48:57;;;;;;;;;;;;;;;6.97;69.26;96064.66;4887906;29;19967;-74
2022/04/09 08:51:23;;;;;;;;;;;;;;;7.09;64.95;96013.50;4877917;29;19956;-74
2022/04/09 08:53:50;;;;;;;;;;;;;;;6.87;66.76;96039.84;4887708;29;20007;-75
2022/04/09 08:56:17;;;;;;;;;;;;;;;6.75;66.85;96046.66;4891362;29;19979;-75
2022/04/09 08:58:43;;;;;;;;;;;;;;;6.91;67.90;96066.31;4893227;29;19968;-75
2022/04/09 09:01:09;;;;;;;;;;;;;;;7.00;66.72;96052.03;4895835;29;20004;-75
2022/04/09 09:03:35;;;;;;;;;;;;;;;6.98;66.86;96053.25;4892644;29;20057;-75
2022/04/09 09:06:02;;;;;;;;;;;;;;;7.21;68.69;96068.44;4892369;29;19981;-76
2022/04/09 09:08:35;;;;;;;;;;;;;;;7.29;68.73;96071.59;4888548;29;19965;-76
2022/04/09 09:11:01;;;;;;;;;;;;;;;7.49;63.79;96021.16;4895887;29;20409;-76
2022/04/09 09:13:27;;;;;;;;;;;;;;;7.50;60.47;95981.00;4876754;29;20035;-75
2022/04/09 09:15:55;;;;;;;;;;;;;;;7.66;65.81;96047.56;4891392;29;19978;-75
2022/04/09 09:18:22;;;;;;;;;;;;;;;7.64;66.00;96060.84;4888529;29;19954;-75
2022/04/09 09:20:55;;;;;;;;;;;;;;;7.66;64.33;96037.13;4899805;29;19960;-75
2022/04/09 09:23:22;;;;;;;;;;;;;;;7.52;62.06;96026.75;4891337;29;19953;-77
2022/04/09 09:26:19;;;;;;;;;;;;;;;7.17;64.62;96062.00;4843060;29;19955;-75
2022/04/09 09:28:53;;;;;;;;;;;;;;;6.77;67.29;96096.78;4833593;29;19967;-75
2022/04/09 09:31:46;;;;;;;;;;;;;;;6.25;66.96;96107.00;4890463;29;19956;-76
2022/04/09 09:34:13;;;;;;;;;;;;;;;5.85;67.64;96119.09;4885454;29;19964;-77
2022/04/09 09:36:41;;;;;;;;;;;;;;;5.63;68.01;96119.22;4875041;29;20031;-76
2022/04/09 09:39:08;;;;;;;;;;;;;;;5.83;73.25;96134.91;4890129;29;19960;-76
2022/04/09 09:41:34;;;;;;;;;;;;;;;5.99;69.96;96109.56;4898124;29;19956;-75
2022/04/09 09:44:04;;;;;;;;;;;;;;;5.94;67.01;96091.09;4892361;29;19951;-75
2022/04/09 09:46:30;;;;;;;;;;;;;;;5.87;69.50;96130.91;4896141;29;20329;-76
2022/04/09 09:48:56;;;;;;;;;;;;;;;5.83;66.54;96089.88;4897417;29;19958;-75
2022/04/09 09:51:23;;;;;;;;;;;;;;;5.80;64.50;96080.66;4887350;29;19957;-77
2022/04/09 09:53:49;;;;;;;;;;;;;;;5.87;65.65;96091.88;4891188;29;20317;-77
2022/04/09 09:56:32;;;;;;;;;;;;;;;5.97;68.33;96137.59;4895959;29;20022;-75
2022/04/09 09:58:59;;;;;;;;;;;;;;;6.04;66.49;96113.16;4889261;29;19965;-75
2022/04/09 10:01:25;;;;;;;;;;;;;;;6.12;65.08;96096.56;4885681;29;19966;-75
2022/04/09 10:03:51;;;;;;;;;;;;;;;6.36;64.32;96094.38;4869228;29;19968;-75
2022/04/09 10:06:18;;;;;;;;;;;;;;;6.54;64.24;96104.22;4888826;29;19994;-75
2022/04/09 10:08:44;;;;;;;;;;;;;;;6.58;61.61;96067.13;4891387;29;19976;-74
2022/04/09 10:11:10;;;;;;;;;;;;;;;6.52;66.60;96125.25;4893489;29;19959;-75
2022/04/09 10:13:57;;;;;;;;;;;;;;;6.46;64.87;96115.63;4887874;29;20327;-75
2022/04/09 10:16:23;;;;;;;;;;;;;;;6.48;62.99;96090.19;4889548;29;19970;-75
2022/04/09 10:18:49;;;;;;;;;;;;;;;6.66;61.01;96063.53;4894728;29;19963;-75
2022/04/09 10:21:16;;;;;;;;;;;;;;;6.93;64.40;96106.00;4892915;29;19967;-75
2022/04/09 10:23:42;;;;;;;;;;;;;;;7.24;60.79;96068.78;4893483;29;19969;-76
2022/04/09 10:26:09;;;;;;;;;;;;;;;7.48;58.83;96040.44;4889979;29;19956;-75
2022/04/09 10:28:38;;;;;;;;;;;;;;;7.79;60.53;96050.09;4889989;29;19974;-75
2022/04/09 10:31:21;;;;;;;;;;;;;;;8.06;61.78;96071.63;4888237;29;19969;-74
2022/04/09 10:33:57;;;;;;;;;;;;;;;8.27;56.54;96017.41;4874740;29;19961;-74
2022/04/09 10:36:42;;;;;;;;;;;;;;;8.29;62.62;96088.53;4887222;29;19977;-77
2022/04/09 10:39:36;;;;;;;;;;;;;;;8.44;54.15;95974.09;4899160;29;20413;-74
2022/04/09 10:42:02;;;;;;;;;;;;;;;8.45;59.52;96029.78;4890413;29;20337;-75
2022/04/09 10:44:37;;;;;;;;;;;;;;;8.08;53.56;95975.59;4887642;29;19958;-74
2022/04/09 10:47:03;;;;;;;;;;;;;;;7.73;58.51;96020.41;4890397;29;19954;-75
2022/04/09 10:49:30;;;;;;;;;;;;;;;7.53;56.84;96015.28;4888428;29;19961;-74
2022/04/09 10:51:57;;;;;;;;;;;;;;;7.62;55.79;96000.22;4894682;29;19959;-74
2022/04/09 10:54:23;;;;;;;;;;;;;;;7.86;58.70;96040.41;4882022;29;19956;-75
2022/04/09 10:56:49;;;;;;;;;;;;;;;8.17;62.17;96062.31;4891092;29;20037;-74
2022/04/09 10:59:18;;;;;;;;;;;;;;;8.42;55.07;95998.84;4886151;29;19968;-74
2022/04/09 11:01:46;;;;;;;;;;;;;;;8.63;57.14;96024.59;4887775;29;20331;-74
2022/04/09 11:07:19;;;;;;;;;;;;;;;8.79;54.61;95991.84;4892407;29;19989;-75
2022/04/09 11:09:53;;;;;;;;;;;;;;;8.93;55.13;96002.97;4885721;29;19963;-75
2022/04/09 11:12:24;;;;;;;;;;;;;;;8.89;56.24;96015.66;4893286;29;20422;-76
2022/04/09 11:14:51;;;;;;;;;;;;;;;8.90;55.49;95998.16;4888328;29;20335;-75
2022/04/09 11:17:18;;;;;;;;;;;;;;;9.14;57.34;96036.53;4887420;29;19971;-75
2022/04/09 11:20:23;;;;;;;;;;;;;;;9.45;52.69;95948.41;4851886;29;19956;-75
2022/04/09 11:22:52;;;;;;;;;;;;;;;9.62;54.90;95987.84;4852023;29;19962;-75
2022/04/09 11:25:19;;;;;;;;;;;;;;;9.61;50.22;95948.78;4845863;29;19957;-75
2022/04/09 11:27:45;;;;;;;;;;;;;;;9.68;54.14;96000.03;4859257;29;19967;-75
2022/04/09 11:30:13;;;;;;;;;;;;;;;9.76;54.16;95977.94;4888776;29;20290;-75
2022/04/09 11:32:40;;;;;;;;;;;;;;;9.67;53.17;95938.19;4888040;29;19966;-75
2022/04/09 11:35:10;;;;;;;;;;;;;;;9.38;52.25;95973.84;4887533;29;19973;-75
2022/04/09 11:37:48;;;;;;;;;;;;;;;9.16;52.44;95970.91;4880755;29;19979;-75
2022/04/09 11:40:14;;;;;;;;;;;;;;;8.79;48.96;95926.47;4895734;29;20350;-75
2022/04/09 11:42:44;;;;;;;;;;;;;;;8.67;54.54;96010.06;4880962;29;19968;-75
2022/04/09 11:45:20;;;;;;;;;;;;;;;8.84;53.13;95978.09;4894619;29;19962;-74
2022/04/09 11:47:46;;;;;;;;;;;;;;;9.23;55.50;96005.63;4890976;29;19965;-75
2022/04/09 11:50:12;;;;;;;;;;;;;;;9.42;50.22;95940.97;4886880;29;19965;-74
2022/04/09 11:52:38;;;;;;;;;;;;;;;9.70;48.22;95919.44;4872053;29;19970;-74
2022/04/09 11:55:09;;;;;;;;;;;;;;;9.87;49.49;95942.34;4897823;29;19969;-75
2022/04/09 11:57:35;;;;;;;;;;;;;;;10.13;49.04;95922.78;4885339;29;19973;-74
2022/04/09 12:00:04;;;;;;;;;;;;;;;10.06;50.83;95943.84;4883121;29;19965;-74
2022/04/09 12:02:48;;;;;;;;;;;;;;;9.96;53.47;95990.75;4892330;29;19950;-74
2022/04/09 12:05:14;;;;;;;;;;;;;;;10.10;50.63;95970.38;4890249;29;19961;-74
2022/04/09 12:07:42;;;;;;;;;;;;;;;10.29;48.17;95937.88;4889945;29;20433;-74
2022/04/09 12:10:22;;;;;;;;;;;;;;;10.36;44.24;95975.22;4875591;29;20417;-74
2022/04/09 12:12:53;;;;;;;;;;;;;;;10.50;47.86;96025.63;4889583;29;19970;-74
2022/04/09 12:15:25;;;;;;;;;;;;;;;10.56;47.59;96016.84;4885972;29;19980;-75
2022/04/09 12:17:51;;;;;;;;;;;;;;;10.44;46.32;96000.31;4893390;29;20453;-75
2022/04/09 12:20:36;;;;;;;;;;;;;;;10.12;48.72;96033.84;4875511;29;19968;-74
2022/04/09 12:23:03;;;;;;;;;;;;;;;9.64;45.46;96014.59;4886699;29;19965;-74
2022/04/09 12:25:34;;;;;;;;;;;;;;;9.39;46.36;96019.94;4886606;29;19956;-75
2022/04/09 12:28:00;;;;;;;;;;;;;;;9.08;45.94;96007.84;4902113;29;19963;-74
2022/04/09 12:30:41;;;;;;;;;;;;;;;8.79;48.65;96054.59;4892966;29;19966;-74
2022/04/09 12:33:08;;;;;;;;;;;;;;;8.65;47.68;96043.47;4898647;29;19956;-74
2022/04/09 12:35:33;;;;;;;;;;;;;;;8.68;48.57;96063.16;4899656;29;19956;-74
2022/04/09 12:38:00;;;;;;;;;;;;;;;8.73;48.99;96063.28;4904477;29;20025;-75
2022/04/09 12:40:29;;;;;;;;;;;;;;;8.83;49.14;96058.38;4904461;29;19967;-74
2022/04/09 12:42:55;;;;;;;;;;;;;;;9.08;49.14;96057.53;4904494;29;19958;-74
2022/04/09 12:45:23;;;;;;;;;;;;;;;9.11;48.83;96057.09;4901877;29;19965;-75
2022/04/09 12:47:53;;;;;;;;;;;;;;;9.13;51.97;96089.06;4896645;29;19981;-74
2022/04/09 12:50:20;;;;;;;;;;;;;;;9.17;49.88;96068.50;4889937;29;19965;-74
2022/04/09 12:52:46;;;;;;;;;;;;;;;9.27;51.66;96080.06;4890851;29;19955;-74
2022/04/09 12:55:16;;;;;;;;;;;;;;;9.42;49.52;96056.13;4892748;29;20479;-74
2022/04/09 12:57:42;;;;;;;;;;;;;;;9.48;45.70;96016.00;4894239;29;19974;-74
2022/04/09 13:00:08;;;;;;;;;;;;;;;9.51;48.32;96033.88;4893365;29;19967;-74
2022/04/09 13:02:36;;;;;;;;;;;;;;;9.63;47.50;96017.41;4895637;29;20014;-74